Furenas — OZ2085 — position and weather

sailwx.info

Track history (hours):
 
Tides and Currents Weather Stations Pressure Air Temp Water Temp Dewpoint Dewpoint Depression Visibility Wind Speed Wind Dir Waves Ship Positions

Furenas

Last reported at 2014-Jul-25 14:33 UTC. Time now 2014-Jul-26 09:12 UTC.
Position N 57°41' E 011°53'.

Length 137 m; draft 7.6 m.

Type: Tanker. MMSI: 231734000.

Date/timePositionNaut miles runAvg speedWind from/ knotsBaromVisibWave heightAir tempDewpointWater temp
2014-Jul-25 14:33N 57°41' E 011°53'0 0.0
2014-Jul-25 13:33N 57°41' E 011°53'2 1.9
2014-Jul-25 12:34N 57°41' E 011°49'7 6.5
2014-Jul-25 11:32N 57°36' E 011°41'0 0.0
2014-Jul-25 10:32N 57°36' E 011°41'0 0.1
2014-Jul-25 09:32N 57°36' E 011°41'0 0.1
2014-Jul-25 08:32N 57°36' E 011°41'3 2.7
2014-Jul-25 07:34N 57°33' E 011°39'1 0.6
2014-Jul-25 06:33N 57°33' E 011°39'0 0.1
2014-Jul-25 05:33N 57°33' E 011°39'0 0.0
2014-Jul-25 04:33N 57°33' E 011°39'0 0.1
2014-Jul-25 03:34N 57°33' E 011°39'9 9.4
2014-Jul-25 02:33N 57°23' E 011°40'1212.2
2014-Jul-25 01:34N 57°11' E 011°40'1212.0
2014-Jul-25 00:34N 56°60' E 011°45'1212.1
2014-Jul-24 23:34N 56°48' E 011°52'1111.1
2014-Jul-24 22:33N 56°38' E 011°46'1111.4
2014-Jul-24 21:33N 56°28' E 011°35'1211.5
2014-Jul-24 20:34N 56°18' E 011°25'1111.3
2014-Jul-24 19:33N 56°08' E 011°13'1111.4
2014-Jul-24 18:34N 55°59' E 011°02'1111.5
2014-Jul-24 17:34N 55°50' E 010°50'13 0.7
2014-Jul-23 23:26N 55°40' E 011°06'4 4.4
2014-Jul-23 22:33N 55°41' E 010°59'9 9.0
2014-Jul-23 21:33N 55°48' E 010°48'1110.9
2014-Jul-23 20:32N 55°57' E 010°59'1111.1
2014-Jul-23 19:33N 56°06' E 011°09'1111.0
2014-Jul-23 18:33N 56°15' E 011°21'1111.1
2014-Jul-23 17:33N 56°25' E 011°31'1311.1
2014-Jul-23 16:25N 56°36' E 011°42'1011.2
2014-Jul-23 15:30N 56°45' E 011°51'1111.2
2014-Jul-23 14:33N 56°55' E 011°46'1211.7
2014-Jul-23 13:33N 57°06' E 011°39'1211.8
2014-Jul-23 12:33N 57°17' E 011°31'1211.8
2014-Jul-23 11:33N 57°28' E 011°23'1111.3
2014-Jul-23 10:33N 57°35' E 011°07'1211.5
2014-Jul-23 09:33N 57°44' E 010°52'1010.3
2014-Jul-23 08:33N 57°48' E 010°35'1212.2
2014-Jul-23 07:33N 57°44' E 010°13'1211.7
2014-Jul-23 06:33N 57°41' E 009°52'1211.6
2014-Jul-23 05:33N 57°34' E 009°34'1211.6
2014-Jul-23 04:33N 57°28' E 009°16'12012.9
2014-Jul-22 19:11N 55°54' E 006°58'6 6.7
2014-Jul-22 18:20N 55°49' E 006°53'0 0.2
2014-Jul-22 17:30N 55°49' E 006°53'1212.1
2014-Jul-22 16:32N 55°39' E 006°42'1313.5
2014-Jul-22 15:33N 55°28' E 006°30'1111.3
2014-Jul-22 14:33N 55°18' E 006°19'1312.7
2014-Jul-22 13:33N 55°07' E 006°07'5012.4
2014-Jul-22 09:33N 54°26' E 005°21'1212.2
2014-Jul-22 08:33N 54°16' E 005°08'1312.6
2014-Jul-22 07:30N 54°05' E 004°58'1212.3
2014-Jul-22 06:32N 53°53' E 004°54'1812.5
2014-Jul-22 05:07N 53°35' E 004°50'712.4
2014-Jul-22 04:33N 53°29' E 004°46'1312.7
2014-Jul-22 03:33N 53°17' E 004°37'2712.9
2014-Jul-22 01:28N 52°54' E 004°16'1213.0
2014-Jul-22 00:32N 52°43' E 004°05'1512.9
2014-Jul-21 23:20N 52°32' E 003°48'7312.6
2014-Jul-21 17:31N 51°38' E 002°27'1211.5
2014-Jul-21 16:29N 51°29' E 002°15'8 9.1
2014-Jul-21 15:33N 51°21' E 002°17'1010.2
2014-Jul-21 14:33N 51°23' E 002°33'9 9.2
2014-Jul-21 13:33N 51°19' E 002°20'10 9.6
2014-Jul-21 12:33N 51°14' E 002°07'10 9.7
2014-Jul-21 11:33N 51°09' E 001°53'1010.0
2014-Jul-21 10:34N 51°03' E 001°41'11 9.9
2014-Jul-21 09:30N 50°55' E 001°30'41 9.4
2014-Jul-21 05:08N 50°26' E 000°44'6 9.9
2014-Jul-21 04:33N 50°25' E 000°36'261 6.6
2014-Jul-19 13:17N 52°11' W 005°46'6 7.7
2014-Jul-19 12:33N 52°16' W 005°44'9 8.4
2014-Jul-19 11:31N 52°25' W 005°41'10610.3
2014-Jul-19 01:17N 54°09' W 005°15'810.0
2014-Jul-19 00:32N 54°17' W 005°15'1010.3
2014-Jul-18 23:33N 54°27' W 005°15'1010.3
2014-Jul-18 22:33N 54°37' W 005°17'1010.1
2014-Jul-18 21:33N 54°47' W 005°19'1010.2
2014-Jul-18 20:33N 54°57' W 005°21'10 9.7
2014-Jul-18 19:32N 55°07' W 005°19'28 9.2
2014-Jul-18 16:29N 55°33' W 005°01'4 4.1
2014-Jul-18 15:31N 55°35' W 005°07'0 0.0
2014-Jul-18 11:33N 55°35' W 005°07'0 0.0
2014-Jul-18 09:27N 55°35' W 005°07'0 0.0
2014-Jul-18 05:09N 55°35' W 005°07'0 0.1
2014-Jul-18 02:30N 55°35' W 005°07'0 0.0
2014-Jul-17 18:30N 55°35' W 005°07'0 0.0
2014-Jul-17 08:27N 55°35' W 005°07'0 0.0
2014-Jul-17 07:18N 55°35' W 005°07'6 2.0
2014-Jul-17 04:14N 55°41' W 005°02'812.0
2014-Jul-17 03:33N 55°48' W 004°58'1111.0
2014-Jul-17 02:33N 55°58' W 004°49'1111.0
2014-Jul-17 01:33N 55°56' W 004°30'4 3.9
2014-Jul-17 00:32N 55°54' W 004°24'0 0.0
2014-Jul-16 23:19N 55°54' W 004°24'0 0.0
2014-Jul-16 22:31N 55°54' W 004°24'0 0.0
2014-Jul-16 03:22N 55°54' W 004°24'0 0.0
2014-Jul-16 02:31N 55°54' W 004°24'1 1.2
2014-Jul-16 01:33N 55°54' W 004°26'8 8.1
2014-Jul-16 00:33N 55°56' W 004°39'8 8.3
2014-Jul-15 23:33N 55°56' W 004°54'1313.1
2014-Jul-15 22:34N 55°43' W 004°59'7 6.6
2014-Jul-15 21:32N 55°37' W 004°59'19 6.0
2014-Jul-15 18:20N 55°20' W 005°14'5 6.2
2014-Jul-15 17:33N 55°16' W 005°21'8 6.0
2014-Jul-15 16:10N 55°14' W 005°35'4 6.2
2014-Jul-15 15:33N 55°14' W 005°41'  
Track history (hours):
 
Tides and Currents Weather Stations Pressure Air Temp Water Temp Dewpoint Dewpoint Depression Visibility Wind Speed Wind Dir Waves Ship Positions

Furenas

Last reported at 2014-Jul-25 14:33 UTC. Time now 2014-Jul-26 09:12 UTC.
Position N 57°41' E 011°53'.

Length 137 m; draft 7.6 m.

Type: Tanker. MMSI: 231734000.

Date/timePositionNaut miles runAvg speedWind from/ knotsBaromVisibWave heightAir tempDewpointWater temp
2014-Jul-25 14:33N 57°41' E 011°53'0 0.0
2014-Jul-25 13:33N 57°41' E 011°53'2 1.9
2014-Jul-25 12:34N 57°41' E 011°49'7 6.5
2014-Jul-25 11:32N 57°36' E 011°41'0 0.0
2014-Jul-25 10:32N 57°36' E 011°41'0 0.1
2014-Jul-25 09:32N 57°36' E 011°41'0 0.1
2014-Jul-25 08:32N 57°36' E 011°41'3 2.7
2014-Jul-25 07:34N 57°33' E 011°39'1 0.6
2014-Jul-25 06:33N 57°33' E 011°39'0 0.1
2014-Jul-25 05:33N 57°33' E 011°39'0 0.0
2014-Jul-25 04:33N 57°33' E 011°39'0 0.1
2014-Jul-25 03:34N 57°33' E 011°39'9 9.4
2014-Jul-25 02:33N 57°23' E 011°40'1212.2
2014-Jul-25 01:34N 57°11' E 011°40'1212.0
2014-Jul-25 00:34N 56°60' E 011°45'1212.1
2014-Jul-24 23:34N 56°48' E 011°52'1111.1
2014-Jul-24 22:33N 56°38' E 011°46'1111.4
2014-Jul-24 21:33N 56°28' E 011°35'1211.5
2014-Jul-24 20:34N 56°18' E 011°25'1111.3
2014-Jul-24 19:33N 56°08' E 011°13'1111.4
2014-Jul-24 18:34N 55°59' E 011°02'1111.5
2014-Jul-24 17:34N 55°50' E 010°50'13 0.7
2014-Jul-23 23:26N 55°40' E 011°06'4 4.4
2014-Jul-23 22:33N 55°41' E 010°59'9 9.0
2014-Jul-23 21:33N 55°48' E 010°48'1110.9
2014-Jul-23 20:32N 55°57' E 010°59'1111.1
2014-Jul-23 19:33N 56°06' E 011°09'1111.0
2014-Jul-23 18:33N 56°15' E 011°21'1111.1
2014-Jul-23 17:33N 56°25' E 011°31'1311.1
2014-Jul-23 16:25N 56°36' E 011°42'1011.2
2014-Jul-23 15:30N 56°45' E 011°51'1111.2
2014-Jul-23 14:33N 56°55' E 011°46'1211.7
2014-Jul-23 13:33N 57°06' E 011°39'1211.8
2014-Jul-23 12:33N 57°17' E 011°31'1211.8
2014-Jul-23 11:33N 57°28' E 011°23'1111.3
2014-Jul-23 10:33N 57°35' E 011°07'1211.5
2014-Jul-23 09:33N 57°44' E 010°52'1010.3
2014-Jul-23 08:33N 57°48' E 010°35'1212.2
2014-Jul-23 07:33N 57°44' E 010°13'1211.7
2014-Jul-23 06:33N 57°41' E 009°52'1211.6
2014-Jul-23 05:33N 57°34' E 009°34'1211.6
2014-Jul-23 04:33N 57°28' E 009°16'12012.9
2014-Jul-22 19:11N 55°54' E 006°58'6 6.7
2014-Jul-22 18:20N 55°49' E 006°53'0 0.2
2014-Jul-22 17:30N 55°49' E 006°53'1212.1
2014-Jul-22 16:32N 55°39' E 006°42'1313.5
2014-Jul-22 15:33N 55°28' E 006°30'1111.3
2014-Jul-22 14:33N 55°18' E 006°19'1312.7
2014-Jul-22 13:33N 55°07' E 006°07'5012.4
2014-Jul-22 09:33N 54°26' E 005°21'1212.2
2014-Jul-22 08:33N 54°16' E 005°08'1312.6
2014-Jul-22 07:30N 54°05' E 004°58'1212.3
2014-Jul-22 06:32N 53°53' E 004°54'1812.5
2014-Jul-22 05:07N 53°35' E 004°50'712.4
2014-Jul-22 04:33N 53°29' E 004°46'1312.7
2014-Jul-22 03:33N 53°17' E 004°37'2712.9
2014-Jul-22 01:28N 52°54' E 004°16'1213.0
2014-Jul-22 00:32N 52°43' E 004°05'1512.9
2014-Jul-21 23:20N 52°32' E 003°48'7312.6
2014-Jul-21 17:31N 51°38' E 002°27'1211.5
2014-Jul-21 16:29N 51°29' E 002°15'8 9.1
2014-Jul-21 15:33N 51°21' E 002°17'1010.2
2014-Jul-21 14:33N 51°23' E 002°33'9 9.2
2014-Jul-21 13:33N 51°19' E 002°20'10 9.6
2014-Jul-21 12:33N 51°14' E 002°07'10 9.7
2014-Jul-21 11:33N 51°09' E 001°53'1010.0
2014-Jul-21 10:34N 51°03' E 001°41'11 9.9
2014-Jul-21 09:30N 50°55' E 001°30'41 9.4
2014-Jul-21 05:08N 50°26' E 000°44'6 9.9
2014-Jul-21 04:33N 50°25' E 000°36'261 6.6
2014-Jul-19 13:17N 52°11' W 005°46'6 7.7
2014-Jul-19 12:33N 52°16' W 005°44'9 8.4
2014-Jul-19 11:31N 52°25' W 005°41'10610.3
2014-Jul-19 01:17N 54°09' W 005°15'810.0
2014-Jul-19 00:32N 54°17' W 005°15'1010.3
2014-Jul-18 23:33N 54°27' W 005°15'1010.3
2014-Jul-18 22:33N 54°37' W 005°17'1010.1
2014-Jul-18 21:33N 54°47' W 005°19'1010.2
2014-Jul-18 20:33N 54°57' W 005°21'10 9.7
2014-Jul-18 19:32N 55°07' W 005°19'28 9.2
2014-Jul-18 16:29N 55°33' W 005°01'4 4.1
2014-Jul-18 15:31N 55°35' W 005°07'0 0.0
2014-Jul-18 11:33N 55°35' W 005°07'0 0.0
2014-Jul-18 09:27N 55°35' W 005°07'0 0.0
2014-Jul-18 05:09N 55°35' W 005°07'0 0.1
2014-Jul-18 02:30N 55°35' W 005°07'0 0.0
2014-Jul-17 18:30N 55°35' W 005°07'0 0.0
2014-Jul-17 08:27N 55°35' W 005°07'0 0.0
2014-Jul-17 07:18N 55°35' W 005°07'6 2.0
2014-Jul-17 04:14N 55°41' W 005°02'812.0
2014-Jul-17 03:33N 55°48' W 004°58'1111.0
2014-Jul-17 02:33N 55°58' W 004°49'1111.0
2014-Jul-17 01:33N 55°56' W 004°30'4 3.9
2014-Jul-17 00:32N 55°54' W 004°24'0 0.0
2014-Jul-16 23:19N 55°54' W 004°24'0 0.0
2014-Jul-16 22:31N 55°54' W 004°24'0 0.0
2014-Jul-16 03:22N 55°54' W 004°24'0 0.0
2014-Jul-16 02:31N 55°54' W 004°24'1 1.2
2014-Jul-16 01:33N 55°54' W 004°26'8 8.1
2014-Jul-16 00:33N 55°56' W 004°39'8 8.3
2014-Jul-15 23:33N 55°56' W 004°54'1313.1
2014-Jul-15 22:34N 55°43' W 004°59'7 6.6
2014-Jul-15 21:32N 55°37' W 004°59'19 6.0
2014-Jul-15 18:20N 55°20' W 005°14'5 6.2
2014-Jul-15 17:33N 55°16' W 005°21'8 6.0
2014-Jul-15 16:10N 55°14' W 005°35'4 6.2
2014-Jul-15 15:33N 55°14' W 005°41'  

Dump ship's entire track history